createdAt,value
2019-06-15T00:00:58.218Z,94.45
2019-06-15T00:01:58.166Z,95.46
2019-06-15T00:02:58.156Z,95.81
2019-06-15T00:03:58.146Z,96.41
2019-06-15T00:04:58.141Z,96.71
2019-06-15T00:05:58.148Z,96.21
2019-06-15T00:06:58.246Z,96.92
2019-06-15T00:07:58.104Z,96.61
2019-06-15T00:08:58.112Z,97.02
2019-06-15T00:09:58.074Z,96.92
2019-06-15T00:10:58.093Z,96.51
2019-06-15T00:11:58.057Z,95.96
2019-06-15T00:12:58.044Z,95.86
2019-06-15T00:13:58.029Z,95.90
2019-06-15T00:14:58.017Z,95.61
2019-06-15T00:15:58.030Z,95.90
2019-06-15T00:16:58.016Z,95.61
2019-06-15T00:17:57.990Z,96.06
2019-06-15T00:18:57.980Z,95.70
2019-06-15T00:19:57.965Z,95.76
2019-06-15T00:20:57.970Z,95.36
2019-06-15T00:21:57.958Z,95.36
2019-06-15T00:22:57.934Z,95.56
2019-06-15T00:23:57.918Z,95.96
2019-06-15T00:24:57.910Z,95.70
2019-06-15T00:25:57.919Z,95.90
2019-06-15T00:26:57.883Z,95.66
2019-06-15T00:27:57.885Z,96.01
2019-06-15T00:28:57.865Z,96.16
2019-06-15T00:29:57.855Z,95.86
2019-06-15T00:30:57.875Z,95.81
2019-06-15T00:31:57.856Z,95.70
2019-06-15T00:32:57.863Z,95.70
2019-06-15T00:33:57.806Z,95.61
2019-06-15T00:34:57.792Z,95.61
2019-06-15T00:35:57.805Z,95.36
2019-06-15T00:36:57.785Z,95.30
2019-06-15T00:37:57.763Z,94.85
2019-06-15T00:38:57.753Z,95.30
2019-06-15T00:39:57.742Z,95.40
2019-06-15T00:40:57.750Z,95.10
2019-06-15T00:41:57.711Z,95.15
2019-06-15T00:42:57.708Z,95.30
2019-06-15T00:43:57.703Z,95.30
2019-06-15T00:44:57.711Z,94.90
2019-06-15T00:45:57.692Z,95.30
2019-06-15T00:46:57.679Z,95.70
2019-06-15T00:47:57.645Z,96.21
2019-06-15T00:48:57.640Z,96.21
2019-06-15T00:49:57.636Z,96.21
2019-06-15T00:50:57.619Z,96.41
2019-06-15T00:51:57.626Z,96.56
2019-06-15T00:52:57.593Z,96.96
2019-06-15T00:53:57.577Z,96.66
2019-06-15T00:54:57.568Z,96.96
2019-06-15T00:55:57.558Z,97.06
2019-06-15T00:56:57.566Z,96.66
2019-06-15T00:57:57.541Z,96.86
2019-06-15T00:58:57.521Z,96.56
2019-06-15T00:59:57.514Z,97.06
2019-06-15T01:00:57.505Z,97.47
2019-06-15T01:01:57.526Z,97.36
2019-06-15T01:02:57.490Z,97.31
2019-06-15T01:03:57.479Z,97.11
2019-06-15T01:04:57.458Z,97.31
2019-06-15T01:05:57.450Z,97.51
2019-06-15T01:06:57.453Z,97.51
2019-06-15T01:07:57.441Z,97.51
2019-06-15T01:08:57.418Z,97.31
2019-06-15T01:09:57.411Z,97.45
2019-06-15T01:10:57.400Z,97.66
2019-06-15T01:11:57.406Z,98.16
2019-06-15T01:12:57.374Z,97.91
2019-06-15T01:13:57.361Z,97.45
2019-06-15T01:14:57.389Z,97.36
2019-06-15T01:15:57.343Z,97.16
2019-06-15T01:16:57.348Z,97.45
2019-06-15T01:17:57.323Z,97.96
2019-06-15T01:18:57.311Z,98.07
2019-06-15T01:19:57.299Z,97.45
2019-06-15T01:20:57.293Z,98.47
2019-06-15T01:21:57.307Z,98.77
2019-06-15T01:22:57.273Z,98.27
2019-06-15T01:23:57.259Z,98.67
2019-06-15T01:25:05.723Z,98.77
2019-06-15T01:25:58.241Z,98.07
2019-06-15T01:26:57.241Z,98.36
2019-06-15T01:27:57.216Z,98.16
2019-06-15T01:28:57.205Z,97.96
2019-06-15T01:29:57.198Z,98.07
2019-06-15T01:30:57.192Z,97.96
2019-06-15T01:31:57.189Z,97.76
2019-06-15T01:32:57.164Z,97.76
2019-06-15T01:33:57.155Z,97.16
2019-06-15T01:34:57.145Z,97.86
2019-06-15T01:35:57.129Z,98.07
2019-06-15T01:36:57.142Z,98.11
2019-06-15T01:37:57.104Z,97.36
2019-06-15T01:38:57.094Z,97.25
2019-06-15T01:39:57.086Z,97.56
2019-06-15T01:40:57.077Z,97.36
2019-06-15T01:41:57.067Z,97.41
2019-06-15T01:42:57.081Z,97.51
2019-06-15T01:43:57.044Z,97.45
2019-06-15T01:44:57.032Z,97.31
2019-06-15T01:45:57.018Z,97.71
2019-06-15T01:46:57.021Z,97.91
2019-06-15T01:47:57.019Z,97.41
2019-06-15T01:48:56.989Z,97.51
2019-06-15T01:49:56.982Z,96.70
2019-06-15T01:50:56.965Z,96.60
2019-06-15T01:51:56.960Z,96.91
2019-06-15T01:52:56.967Z,97.51
2019-06-15T01:53:56.966Z,97.41
2019-06-15T01:54:56.931Z,97.51
2019-06-15T01:55:56.919Z,97.31
2019-06-15T01:56:56.903Z,96.50
2019-06-15T01:57:56.913Z,96.80
2019-06-15T01:58:56.879Z,96.80
2019-06-15T01:59:56.875Z,97.31
2019-06-15T02:00:56.866Z,97.11
2019-06-15T02:01:56.871Z,97.21
2019-06-15T02:02:56.861Z,96.70
2019-06-15T02:03:56.833Z,96.95
2019-06-15T02:04:56.822Z,96.25
2019-06-15T02:05:56.813Z,95.90
2019-06-15T02:06:56.805Z,96.30
2019-06-15T02:07:56.807Z,95.84
2019-06-15T02:08:56.776Z,96.00
2019-06-15T02:09:56.767Z,95.94
2019-06-15T02:10:56.753Z,96.14
2019-06-15T02:11:56.743Z,95.84
2019-06-15T02:12:56.757Z,96.14
2019-06-15T02:13:56.727Z,96.34
2019-06-15T02:14:56.718Z,96.25
2019-06-15T02:15:56.709Z,96.04
2019-06-15T02:16:56.709Z,95.43
2019-06-15T02:17:56.697Z,95.54
2019-06-15T02:18:56.686Z,95.34
2019-06-15T02:19:56.663Z,94.73
2019-06-15T02:20:56.649Z,94.73
2019-06-15T02:21:56.635Z,95.23
2019-06-15T02:22:56.640Z,95.43
2019-06-15T02:23:56.614Z,95.03
2019-06-15T02:24:56.611Z,95.14
2019-06-15T02:25:56.598Z,95.14
2019-06-15T02:26:56.613Z,95.54
2019-06-15T02:27:56.607Z,95.68
2019-06-15T02:28:56.565Z,95.64
2019-06-15T02:29:56.550Z,95.94
2019-06-15T02:30:56.544Z,95.23
2019-06-15T02:31:56.531Z,95.78
2019-06-15T02:32:56.523Z,95.18
2019-06-15T02:33:56.536Z,95.07
2019-06-15T02:34:56.492Z,95.98
2019-06-15T02:35:56.487Z,95.68
2019-06-15T02:36:56.476Z,96.03
2019-06-15T02:37:56.471Z,96.34
2019-06-15T02:38:56.479Z,96.44
2019-06-15T02:39:56.461Z,96.64
2019-06-15T02:40:56.430Z,96.94
2019-06-15T02:41:56.416Z,96.84
2019-06-15T02:42:56.406Z,97.25
2019-06-15T02:43:56.417Z,97.34
2019-06-15T02:44:56.387Z,97.29
2019-06-15T02:45:56.379Z,97.60
2019-06-15T02:46:56.369Z,97.60
2019-06-15T02:47:56.363Z,97.29
2019-06-15T02:48:56.367Z,97.49
2019-06-15T02:49:56.332Z,98.10
2019-06-15T02:50:56.323Z,98.00
2019-06-15T02:51:56.308Z,97.39
2019-06-15T02:52:56.305Z,98.00
2019-06-15T02:53:56.301Z,98.40
2019-06-15T02:54:56.270Z,98.71
2019-06-15T02:55:56.266Z,98.71
2019-06-15T02:56:56.253Z,98.20
2019-06-15T02:57:56.247Z,98.40
2019-06-15T02:58:56.253Z,97.94
2019-06-15T02:59:56.222Z,98.30
2019-06-15T03:00:56.212Z,98.40
2019-06-15T03:01:56.196Z,99.05
2019-06-15T03:02:56.207Z,98.65
2019-06-15T03:03:56.191Z,98.25
2019-06-15T03:04:56.167Z,98.14
2019-06-15T03:05:56.157Z,98.14
2019-06-15T03:06:56.137Z,98.65
2019-06-15T03:07:56.128Z,99.05
2019-06-15T03:08:56.141Z,98.90
2019-06-15T03:09:56.116Z,99.05
2019-06-15T03:10:56.109Z,99.56
2019-06-15T03:11:56.093Z,99.16
2019-06-15T03:12:56.072Z,99.61
2019-06-15T03:13:56.128Z,99.21
2019-06-15T03:14:56.071Z,99.10
2019-06-15T03:15:56.064Z,99.10
2019-06-15T03:16:56.083Z,99.01
2019-06-15T03:17:56.029Z,99.91
2019-06-15T03:18:56.036Z,99.99
2019-06-15T03:19:55.998Z,99.99
2019-06-15T03:20:55.983Z,99.99
2019-06-15T03:21:55.974Z,99.99
2019-06-15T03:22:55.971Z,99.66
2019-06-15T03:23:55.975Z,99.99
2019-06-15T03:24:55.939Z,99.97
2019-06-15T03:26:05.169Z,99.46
2019-06-15T03:26:56.918Z,99.56
2019-06-15T03:27:55.909Z,98.96
2019-06-15T03:28:55.922Z,98.85
2019-06-15T03:29:55.891Z,98.85
2019-06-15T03:30:55.880Z,98.40
2019-06-15T03:31:55.869Z,98.81
2019-06-15T03:32:55.858Z,98.71
2019-06-15T03:33:55.856Z,98.61
2019-06-15T03:34:55.827Z,98.71
2019-06-15T03:35:55.818Z,98.46
2019-06-15T03:36:55.813Z,98.36
2019-06-15T03:37:55.801Z,97.85
2019-06-15T03:38:55.826Z,97.45
2019-06-15T03:39:55.780Z,97.45
2019-06-15T03:40:55.767Z,97.55
2019-06-15T03:41:55.757Z,97.85
2019-06-15T03:42:55.752Z,97.55
2019-06-15T03:43:55.732Z,96.74
2019-06-15T03:44:55.738Z,97.25
2019-06-15T03:45:55.722Z,97.55
2019-06-15T03:46:55.704Z,97.65
2019-06-15T03:47:55.685Z,97.85
2019-06-15T03:48:55.677Z,97.45
2019-06-15T03:49:55.687Z,97.25
2019-06-15T03:50:55.663Z,96.94
2019-06-15T03:51:55.657Z,96.94
2019-06-15T03:52:55.630Z,97.25
2019-06-15T03:53:55.618Z,97.25
2019-06-15T03:54:55.639Z,97.25
2019-06-15T03:55:55.601Z,96.84
2019-06-15T03:56:55.585Z,97.55
2019-06-15T03:57:55.573Z,97.10
2019-06-15T03:58:55.563Z,97.40
2019-06-15T03:59:55.574Z,97.10
2019-06-15T04:00:55.543Z,97.10
2019-06-15T04:01:55.552Z,97.20
2019-06-15T04:02:55.519Z,96.39
2019-06-15T04:03:55.509Z,96.39
2019-06-15T04:04:55.525Z,96.09
2019-06-15T04:05:55.494Z,95.89
2019-06-15T04:06:55.482Z,96.29
2019-06-15T04:07:55.471Z,95.98
2019-06-15T04:08:55.453Z,95.54
2019-06-15T04:09:55.460Z,94.73
2019-06-15T04:10:55.439Z,94.93
2019-06-15T04:11:55.425Z,95.03
2019-06-15T04:12:55.416Z,93.72
2019-06-15T04:13:55.398Z,94.18
2019-06-15T04:14:55.428Z,94.28
2019-06-15T04:15:55.380Z,94.89
2019-06-15T04:16:55.376Z,94.79
2019-06-15T04:17:55.364Z,94.48
2019-06-15T04:18:55.359Z,94.48
2019-06-15T04:19:55.359Z,93.98
2019-06-15T04:20:55.328Z,92.77
2019-06-15T04:21:55.314Z,93.23
2019-06-15T04:22:55.303Z,92.97
2019-06-15T04:23:55.296Z,93.33
2019-06-15T04:24:55.329Z,93.33
2019-06-15T04:25:55.280Z,93.27
2019-06-15T04:26:55.262Z,93.48
2019-06-15T04:27:55.259Z,93.07
2019-06-15T04:28:55.242Z,93.37
2019-06-15T04:29:55.260Z,93.37
2019-06-15T04:30:55.230Z,93.98
2019-06-15T04:31:55.227Z,93.98
2019-06-15T04:32:55.195Z,93.84
2019-06-15T04:33:55.182Z,94.08
2019-06-15T04:34:55.219Z,94.34
2019-06-15T04:35:55.164Z,93.33
2019-06-15T04:36:55.153Z,93.13
2019-06-15T04:37:55.174Z,94.24
2019-06-15T04:38:55.133Z,94.24
2019-06-15T04:39:55.145Z,93.73
2019-06-15T04:40:55.108Z,93.43
2019-06-15T04:41:55.094Z,93.33
2019-06-15T04:42:55.102Z,93.89
2019-06-15T04:43:55.086Z,94.13
2019-06-15T04:44:55.084Z,94.13
2019-06-15T04:45:55.052Z,93.18
2019-06-15T04:46:55.038Z,93.08
2019-06-15T04:47:55.061Z,92.88
2019-06-15T04:48:55.024Z,93.49
2019-06-15T04:49:55.045Z,93.08
2019-06-15T04:50:55.004Z,92.83
2019-06-15T04:51:54.990Z,92.83
2019-06-15T04:52:54.976Z,91.93
2019-06-15T04:53:54.972Z,92.54
2019-06-15T04:54:54.955Z,92.05
2019-06-15T04:55:54.959Z,91.89
2019-06-15T04:56:54.935Z,91.04
2019-06-15T04:57:54.926Z,91.18
2019-06-15T04:58:54.916Z,91.49
2019-06-15T04:59:54.894Z,92.13
2019-06-15T05:00:54.924Z,91.93
2019-06-15T05:01:54.881Z,92.27
2019-06-15T05:02:54.867Z,92.33
2019-06-15T05:03:54.853Z,92.38
2019-06-15T05:04:54.842Z,92.27
2019-06-15T05:05:54.846Z,92.07
2019-06-15T05:06:54.815Z,92.98
2019-06-15T05:07:54.809Z,92.58
2019-06-15T05:08:54.799Z,92.38
2019-06-15T05:09:54.793Z,92.98
2019-06-15T05:10:59.639Z,93.08
2019-06-15T05:11:55.763Z,93.18
2019-06-15T05:12:54.750Z,92.98
2019-06-15T05:13:54.738Z,92.98
2019-06-15T05:14:54.735Z,92.88
2019-06-15T05:15:54.737Z,92.68
2019-06-15T05:16:54.714Z,93.04
2019-06-15T05:17:54.695Z,93.24
2019-06-15T05:18:54.734Z,93.04
2019-06-15T05:19:54.680Z,93.04
2019-06-15T05:20:54.699Z,92.54
2019-06-15T05:21:54.657Z,92.74
2019-06-15T05:22:54.647Z,92.94
2019-06-15T05:23:54.680Z,93.14
2019-06-15T05:24:54.619Z,92.74
2019-06-15T05:25:54.620Z,92.69
2019-06-15T05:27:05.835Z,92.94
2019-06-15T05:27:55.582Z,92.63
2019-06-15T05:28:54.588Z,92.03
2019-06-15T05:29:56.588Z,92.23
2019-06-15T05:30:54.727Z,92.54
2019-06-15T05:31:54.542Z,93.85
2019-06-15T05:32:54.535Z,94.45
2019-06-15T05:33:54.535Z,93.85
2019-06-15T05:34:54.511Z,93.99
2019-06-15T05:35:54.498Z,93.95
2019-06-15T05:36:54.524Z,94.15
2019-06-15T05:37:54.472Z,93.24
2019-06-15T05:38:54.459Z,94.05
2019-06-15T05:39:54.448Z,93.24
2019-06-15T05:40:54.440Z,93.14
2019-06-15T05:41:54.446Z,94.75
2019-06-15T05:42:54.419Z,94.95
2019-06-15T05:43:54.408Z,94.55
2019-06-15T05:44:54.395Z,94.15
2019-06-15T05:45:54.376Z,93.38
2019-06-15T05:46:54.403Z,93.14
2019-06-15T05:47:54.439Z,93.34
2019-06-15T05:48:54.347Z,93.95
2019-06-15T05:49:54.349Z,93.85
2019-06-15T05:50:54.320Z,94.95
2019-06-15T05:51:54.334Z,94.45
2019-06-15T05:52:54.303Z,94.75
2019-06-15T05:53:54.299Z,94.10
2019-06-15T05:54:54.281Z,94.55
2019-06-15T05:55:54.268Z,95.15
2019-06-15T05:56:54.273Z,95.86
2019-06-15T05:57:54.243Z,95.66
2019-06-15T05:58:54.229Z,95.76
2019-06-15T05:59:54.249Z,95.96
2019-06-15T06:00:54.212Z,95.86
2019-06-15T06:01:54.234Z,96.06
2019-06-15T06:02:54.186Z,95.26
2019-06-15T06:03:54.178Z,94.60
2019-06-15T06:04:54.168Z,93.90
2019-06-15T06:05:54.164Z,93.90
2019-06-15T06:06:54.170Z,92.85
2019-06-15T06:07:54.138Z,92.55
2019-06-15T06:08:54.123Z,93.15
2019-06-15T06:09:54.131Z,93.41
2019-06-15T06:10:54.100Z,92.66
2019-06-15T06:11:54.111Z,92.11
2019-06-15T06:12:54.082Z,92.32
2019-06-15T06:13:54.073Z,90.56
2019-06-15T06:14:54.061Z,89.11
2019-06-15T06:15:54.052Z,87.30
2019-06-15T06:16:54.059Z,85.75
2019-06-15T06:17:54.022Z,85.36
2019-06-15T06:18:54.029Z,85.41
2019-06-15T06:19:54.005Z,83.21
2019-06-15T06:20:53.991Z,83.91
2019-06-15T06:21:54.001Z,83.11
2019-06-15T06:22:53.995Z,84.01
2019-06-15T06:23:53.968Z,84.71
2019-06-15T06:24:53.953Z,84.31
2019-06-15T06:25:53.941Z,83.17
2019-06-15T06:26:53.955Z,82.06
2019-06-15T06:27:53.916Z,81.96
2019-06-15T06:28:57.226Z,81.67
2019-06-15T06:29:53.890Z,82.17
2019-06-15T06:30:53.878Z,82.53
2019-06-15T06:31:53.875Z,81.68
2019-06-15T06:32:53.901Z,81.35
2019-06-15T06:33:53.854Z,80.91
2019-06-15T06:34:53.835Z,79.49
2019-06-15T06:35:53.828Z,75.19
2019-06-15T06:36:53.835Z,75.96
2019-06-15T06:37:53.829Z,76.02
2019-06-15T06:38:53.798Z,76.02
2019-06-15T06:39:53.785Z,74.52
2019-06-15T06:40:53.773Z,73.79
2019-06-15T06:41:53.767Z,73.19
2019-06-15T06:42:53.771Z,72.42
2019-06-15T06:43:53.765Z,72.68
2019-06-15T06:44:53.737Z,71.59
2019-06-15T06:45:53.724Z,71.78
2019-06-15T06:46:53.721Z,72.22
2019-06-15T06:47:53.728Z,71.22
2019-06-15T06:48:53.685Z,70.82
2019-06-15T06:49:53.672Z,70.59
2019-06-15T06:50:53.680Z,69.82
2019-06-15T06:51:53.663Z,70.29
2019-06-15T06:52:53.661Z,70.29
2019-06-15T06:53:53.629Z,71.05
2019-06-15T06:54:53.688Z,71.39
2019-06-15T06:55:53.721Z,70.12
2019-06-15T06:56:53.719Z,71.56
2019-06-15T06:57:57.134Z,72.75
2019-06-15T06:58:53.608Z,71.26
2019-06-15T06:59:53.568Z,73.11
2019-06-15T07:00:53.567Z,73.11
2019-06-15T07:01:53.578Z,71.15
2019-06-15T07:02:53.557Z,71.49
2019-06-15T07:03:53.531Z,71.29
2019-06-15T07:04:53.518Z,72.25
2019-06-15T07:05:53.531Z,72.22
2019-06-15T07:06:53.523Z,70.65
2019-06-15T07:07:53.478Z,70.29
2019-06-15T07:08:53.473Z,67.47
2019-06-15T07:09:53.551Z,66.74
2019-06-15T07:10:53.458Z,67.21
2019-06-15T07:11:53.453Z,68.07
2019-06-15T07:12:53.464Z,66.28
2019-06-15T07:13:53.431Z,65.95
2019-06-15T07:14:53.422Z,65.19
2019-06-15T07:15:53.395Z,63.37
2019-06-15T07:16:53.382Z,62.23
2019-06-15T07:17:53.444Z,60.81
2019-06-15T07:18:53.366Z,58.97
2019-06-15T07:19:53.383Z,59.23
2019-06-15T07:20:53.344Z,55.87
2019-06-15T07:21:53.328Z,58.74
2019-06-15T07:22:53.323Z,56.89
2019-06-15T07:23:53.379Z,59.09
2019-06-15T07:24:53.300Z,59.25
2019-06-15T07:25:53.307Z,60.68
2019-06-15T07:26:53.284Z,59.27
2019-06-15T07:28:07.198Z,58.45
2019-06-15T07:28:54.272Z,56.34
2019-06-15T07:29:53.260Z,55.15
2019-06-15T07:30:53.285Z,56.44
2019-06-15T07:31:53.235Z,55.85
2019-06-15T07:32:53.220Z,55.03
2019-06-15T07:33:53.212Z,55.00
2019-06-15T07:34:53.188Z,55.60
2019-06-15T07:35:53.199Z,54.78
2019-06-15T07:36:53.211Z,54.19
2019-06-15T07:37:53.394Z,55.92
2019-06-15T07:38:53.184Z,56.76
2019-06-15T07:39:53.151Z,57.98
2019-06-15T07:40:53.223Z,57.90
2019-06-15T07:41:53.158Z,60.10
2019-06-15T07:42:53.124Z,61.45
2019-06-15T07:43:53.121Z,63.04
2019-06-15T07:44:53.141Z,63.57
2019-06-15T07:45:53.082Z,62.60
2019-06-15T07:46:53.064Z,63.33
2019-06-15T07:47:53.064Z,63.53
2019-06-15T07:48:53.062Z,63.63
2019-06-15T07:49:53.042Z,62.80
2019-06-15T07:50:53.081Z,61.82
2019-06-15T07:51:53.022Z,59.97
2019-06-15T07:52:53.007Z,60.31
2019-06-15T07:53:52.983Z,60.34
2019-06-15T07:54:53.062Z,61.73
2019-06-15T07:55:52.991Z,61.40
2019-06-15T07:56:52.963Z,61.37
2019-06-15T07:57:52.949Z,59.86
2019-06-15T07:58:52.946Z,57.62
2019-06-15T07:59:52.950Z,55.27
2019-06-15T08:00:52.941Z,54.33
2019-06-15T08:01:52.922Z,55.16
2019-06-15T08:02:52.907Z,53.54
2019-06-15T08:03:52.899Z,53.91
2019-06-15T08:04:52.902Z,53.27
2019-06-15T08:05:52.866Z,52.65
2019-06-15T08:06:52.855Z,49.11
2019-06-15T08:07:52.842Z,47.79
2019-06-15T08:08:52.878Z,47.38
2019-06-15T08:09:52.837Z,49.21
2019-06-15T08:10:52.815Z,49.65
2019-06-15T08:11:52.813Z,48.16
2019-06-15T08:12:52.881Z,49.04
2019-06-15T08:13:52.873Z,48.55
2019-06-15T08:14:52.788Z,48.21
2019-06-15T08:15:52.795Z,46.30
2019-06-15T08:16:52.775Z,47.13
2019-06-15T08:17:52.746Z,50.39
2019-06-15T08:18:52.764Z,51.94
2019-06-15T08:19:52.725Z,54.21
2019-06-15T08:20:52.741Z,54.39
2019-06-15T08:21:52.719Z,55.73
2019-06-15T08:22:52.697Z,57.10
2019-06-15T08:23:52.693Z,58.74
2019-06-15T08:24:52.674Z,59.11
2019-06-15T08:25:52.756Z,52.93
2019-06-15T08:26:52.711Z,49.08
2019-06-15T08:27:52.675Z,47.58
2019-06-15T08:28:52.629Z,46.97
2019-06-15T08:29:52.618Z,46.12
2019-06-15T08:30:52.791Z,44.34
2019-06-15T08:31:52.593Z,41.11
2019-06-15T08:32:52.609Z,40.29
2019-06-15T08:33:52.592Z,39.14
2019-06-15T08:34:52.562Z,38.19
2019-06-15T08:35:52.555Z,36.11
2019-06-15T08:36:52.576Z,36.30
2019-06-15T08:37:52.563Z,36.13
2019-06-15T08:38:52.545Z,36.36
2019-06-15T08:39:52.531Z,38.20
2019-06-15T08:40:52.537Z,37.77
2019-06-15T08:41:52.518Z,36.24
2019-06-15T08:42:52.509Z,34.72
2019-06-15T08:43:52.473Z,35.36
2019-06-15T08:44:52.498Z,33.70
2019-06-15T08:45:52.463Z,33.95
2019-06-15T08:46:52.477Z,31.36
2019-06-15T08:47:52.444Z,31.94
2019-06-15T08:48:52.427Z,32.04
2019-06-15T08:49:52.465Z,33.49
2019-06-15T08:50:52.417Z,31.01
2019-06-15T08:51:52.407Z,31.38
2019-06-15T08:52:52.404Z,31.33
2019-06-15T08:53:52.387Z,30.66
2019-06-15T08:54:52.404Z,31.43
2019-06-15T08:55:52.672Z,31.12
2019-06-15T08:56:52.423Z,29.60
2019-06-15T08:57:52.385Z,30.66
2019-06-15T08:58:55.577Z,30.76
2019-06-15T08:59:52.385Z,29.28
2019-06-15T09:00:52.418Z,29.24
2019-06-15T09:01:52.327Z,28.07
2019-06-15T09:02:52.310Z,28.16
2019-06-15T09:03:52.326Z,29.13
2019-06-15T09:04:52.323Z,28.53
2019-06-15T09:05:52.288Z,29.33
2019-06-15T09:06:52.323Z,29.04
2019-06-15T09:07:52.308Z,29.32
2019-06-15T09:08:52.270Z,30.45
2019-06-15T09:09:52.313Z,29.44
2019-06-15T09:10:52.255Z,28.45
2019-06-15T09:11:52.232Z,28.15
2019-06-15T09:12:52.229Z,26.89
2019-06-15T09:13:52.217Z,27.75
2019-06-15T09:14:52.224Z,27.75
2019-06-15T09:15:52.200Z,26.48
2019-06-15T09:16:52.199Z,27.15
2019-06-15T09:17:52.189Z,27.12
2019-06-15T09:18:52.186Z,27.20
2019-06-15T09:19:52.229Z,26.52
2019-06-15T09:20:52.155Z,24.69
2019-06-15T09:21:52.187Z,25.16
2019-06-15T09:22:52.143Z,25.16
2019-06-15T09:23:52.185Z,24.51
2019-06-15T09:24:52.154Z,25.19
2019-06-15T09:25:52.136Z,25.99
2019-06-15T09:26:52.110Z,26.61
2019-06-15T09:27:52.142Z,26.19
2019-06-15T09:28:52.092Z,26.42
2019-06-15T09:29:52.119Z,28.09
2019-06-15T09:30:52.092Z,29.08
2019-06-15T09:31:52.075Z,27.59
2019-06-15T09:32:52.065Z,28.33
2019-06-15T09:33:52.063Z,27.11
2019-06-15T09:34:52.062Z,28.03
2019-06-15T09:35:52.069Z,29.79
2019-06-15T09:36:52.065Z,29.61
2019-06-15T09:37:52.024Z,30.80
2019-06-15T09:38:52.019Z,30.85
2019-06-15T09:39:52.014Z,29.76
2019-06-15T09:40:52.017Z,29.95
2019-06-15T09:41:51.984Z,30.13
2019-06-15T09:42:51.980Z,29.86
2019-06-15T09:43:51.982Z,27.91
2019-06-15T09:44:51.975Z,29.70
2019-06-15T09:45:52.012Z,28.76
2019-06-15T09:46:51.992Z,28.84
2019-06-15T09:47:52.030Z,28.61
2019-06-15T09:48:51.958Z,29.74
2019-06-15T09:49:51.942Z,28.63
2019-06-15T09:50:51.971Z,27.50
2019-06-15T09:51:51.941Z,27.87
2019-06-15T09:52:51.916Z,25.45
2019-06-15T09:53:51.891Z,28.26
2019-06-15T09:54:51.888Z,30.39
2019-06-15T09:55:51.894Z,29.87
2019-06-15T09:56:51.862Z,31.62
2019-06-15T09:57:51.851Z,28.89
2019-06-15T09:58:51.842Z,27.66
2019-06-15T09:59:51.882Z,27.11
2019-06-15T10:00:51.867Z,27.37
2019-06-15T10:01:51.823Z,27.20
2019-06-15T10:02:51.808Z,28.43
2019-06-15T10:03:51.802Z,30.87
2019-06-15T10:04:51.800Z,32.23
2019-06-15T10:05:51.808Z,32.34
2019-06-15T10:06:51.772Z,35.51
2019-06-15T10:07:51.759Z,36.46
2019-06-15T10:08:51.761Z,35.66
2019-06-15T10:09:51.769Z,35.87
2019-06-15T10:10:51.753Z,35.66
2019-06-15T10:11:51.728Z,35.75
2019-06-15T10:12:51.712Z,37.88
2019-06-15T10:13:51.706Z,37.94
2019-06-15T10:14:51.713Z,39.74
2019-06-15T10:15:51.723Z,41.72
2019-06-15T10:16:51.695Z,40.37
2019-06-15T10:17:51.678Z,41.67
2019-06-15T10:18:51.671Z,42.30
2019-06-15T10:19:51.693Z,42.02
2019-06-15T10:20:51.662Z,43.73
2019-06-15T10:21:51.629Z,45.68
2019-06-15T10:22:51.635Z,47.63
2019-06-15T10:23:51.614Z,49.17
2019-06-15T10:24:51.653Z,50.36
2019-06-15T10:25:54.169Z,50.09
2019-06-15T10:26:51.580Z,49.71
2019-06-15T10:27:51.572Z,50.60
2019-06-15T10:28:51.563Z,50.63
2019-06-15T10:29:51.551Z,51.25
2019-06-15T10:30:51.537Z,52.39
2019-06-15T10:31:51.577Z,52.49
2019-06-15T10:32:51.536Z,52.39
2019-06-15T10:33:51.534Z,53.51
2019-06-15T10:34:51.502Z,54.93
2019-06-15T10:35:51.501Z,54.73
2019-06-15T10:36:51.492Z,54.41
2019-06-15T10:37:51.468Z,54.53
2019-06-15T10:38:51.450Z,53.74
2019-06-15T10:39:51.443Z,54.73
2019-06-15T10:40:51.435Z,55.03
2019-06-15T10:41:51.465Z,55.63
2019-06-15T10:42:51.413Z,55.33
2019-06-15T10:43:51.406Z,54.83
2019-06-15T10:44:51.393Z,55.43
2019-06-15T10:45:51.398Z,56.45
2019-06-15T10:46:51.389Z,56.75
2019-06-15T10:47:51.375Z,56.12
2019-06-15T10:48:51.361Z,55.93
2019-06-15T10:49:51.341Z,55.20
2019-06-15T10:50:51.328Z,55.55
2019-06-15T10:51:51.334Z,53.53
2019-06-15T10:52:51.334Z,54.47
2019-06-15T10:53:51.303Z,53.28
2019-06-15T10:54:51.284Z,53.80
2019-06-15T10:55:51.289Z,54.33
2019-06-15T10:56:51.281Z,53.58
2019-06-15T10:57:51.263Z,51.67
2019-06-15T10:58:51.240Z,52.04
2019-06-15T10:59:57.461Z,52.56
2019-06-15T11:00:52.223Z,53.23
2019-06-15T11:01:51.235Z,53.23
2019-06-15T11:02:51.202Z,52.91
2019-06-15T11:03:51.202Z,51.54
2019-06-15T11:04:51.184Z,52.14
2019-06-15T11:05:54.629Z,53.28
2019-06-15T11:06:51.157Z,51.60
2019-06-15T11:07:51.170Z,51.50
2019-06-15T11:08:51.138Z,51.82
2019-06-15T11:09:51.120Z,51.92
2019-06-15T11:10:51.129Z,52.07
2019-06-15T11:11:51.097Z,52.17
2019-06-15T11:12:51.122Z,53.69
2019-06-15T11:13:51.087Z,53.94
2019-06-15T11:14:51.080Z,54.83
2019-06-15T11:15:51.061Z,55.35
2019-06-15T11:16:51.043Z,55.46
2019-06-15T11:17:51.058Z,55.68
2019-06-15T11:18:51.051Z,56.63
2019-06-15T11:19:51.009Z,56.23
2019-06-15T11:20:51.012Z,56.73
2019-06-15T11:21:51.031Z,58.33
2019-06-15T11:22:51.003Z,57.43
2019-06-15T11:23:51.012Z,58.23
2019-06-15T11:24:50.976Z,58.12
2019-06-15T11:25:50.960Z,58.33
2019-06-15T11:26:50.940Z,58.85
2019-06-15T11:27:50.966Z,58.55
2019-06-15T11:28:50.918Z,58.36
2019-06-15T11:29:50.925Z,58.28
2019-06-15T11:30:50.893Z,58.88
2019-06-15T11:31:50.892Z,59.08
2019-06-15T11:32:50.898Z,60.00
2019-06-15T11:33:50.865Z,60.93
2019-06-15T11:34:50.855Z,61.54
2019-06-15T11:35:50.851Z,61.10
2019-06-15T11:36:50.827Z,61.00
2019-06-15T11:37:50.841Z,61.30
2019-06-15T11:38:50.813Z,60.80
2019-06-15T11:39:50.813Z,61.38
2019-06-15T11:40:50.797Z,61.08
2019-06-15T11:41:50.803Z,61.05
2019-06-15T11:42:50.790Z,60.42
2019-06-15T11:43:50.752Z,60.42
2019-06-15T11:44:50.750Z,58.89
2019-06-15T11:45:50.748Z,59.00
2019-06-15T11:46:50.735Z,59.27
2019-06-15T11:47:50.745Z,57.64
2019-06-15T11:48:50.700Z,57.32
2019-06-15T11:49:50.693Z,57.69
2019-06-15T11:50:50.689Z,56.24
2019-06-15T11:51:50.669Z,54.63
2019-06-15T11:52:50.690Z,54.77
2019-06-15T11:53:50.666Z,55.76
2019-06-15T11:54:50.684Z,55.07
2019-06-15T11:55:50.619Z,54.30
2019-06-15T11:56:50.624Z,54.30
2019-06-15T11:57:50.607Z,55.42
2019-06-15T11:58:50.620Z,55.82
2019-06-15T11:59:50.612Z,56.17
2019-06-15T12:00:50.570Z,56.77
2019-06-15T12:01:50.561Z,56.42
2019-06-15T12:02:50.555Z,55.43
2019-06-15T12:03:50.571Z,56.62
2019-06-15T12:04:58.320Z,58.54
2019-06-15T12:05:51.551Z,57.75
2019-06-15T12:06:50.514Z,58.64
2019-06-15T12:07:50.510Z,59.77
2019-06-15T12:08:50.496Z,60.39
2019-06-15T12:09:50.491Z,60.32
2019-06-15T12:10:50.504Z,60.99
2019-06-15T12:11:50.467Z,60.76
2019-06-15T12:12:50.464Z,60.33
2019-06-15T12:13:50.448Z,58.04
2019-06-15T12:14:50.422Z,58.18
2019-06-15T12:15:50.411Z,56.99
2019-06-15T12:16:50.410Z,56.59
2019-06-15T12:17:50.439Z,56.96
2019-06-15T12:18:50.380Z,57.04
2019-06-15T12:19:50.392Z,54.53
2019-06-15T12:20:50.359Z,54.68
2019-06-15T12:21:50.352Z,54.08
2019-06-15T12:22:50.636Z,54.47
2019-06-15T12:23:50.324Z,54.55
2019-06-15T12:24:50.319Z,55.64
2019-06-15T12:25:50.330Z,55.66
2019-06-15T12:26:50.294Z,55.62
2019-06-15T12:27:50.310Z,56.61
2019-06-15T12:28:50.273Z,55.42
2019-06-15T12:29:50.278Z,57.31
2019-06-15T12:30:50.271Z,58.20
2019-06-15T12:31:50.259Z,58.17
2019-06-15T12:32:50.230Z,56.12
2019-06-15T12:33:50.213Z,57.19
2019-06-15T12:34:50.210Z,58.74
2019-06-15T12:35:50.211Z,59.49
2019-06-15T12:36:50.187Z,60.22
2019-06-15T12:37:50.201Z,60.42
2019-06-15T12:38:50.178Z,60.39
2019-06-15T12:39:50.334Z,59.77
2019-06-15T12:40:50.172Z,59.04
2019-06-15T12:41:50.136Z,59.51
2019-06-15T12:42:50.117Z,59.68
2019-06-15T12:43:50.131Z,61.44
2019-06-15T12:44:50.122Z,58.73
2019-06-15T12:45:50.099Z,58.40
2019-06-15T12:46:50.084Z,58.20
2019-06-15T12:47:50.088Z,58.07
2019-06-15T12:48:50.080Z,56.49
2019-06-15T12:49:50.051Z,55.59
2019-06-15T12:50:50.071Z,55.69
2019-06-15T12:51:50.022Z,55.27
2019-06-15T12:52:50.024Z,56.16